Time;durP1;ratioP1;P1;durP2;ratioP2;P2;SDS_P1;SDS_P2;PMS_P1;PMS_P2;Temp;Humidity;BMP_temperature;BMP_pressure;BME280_temperature;BME280_humidity;BME280_pressure;Samples;Min_cycle;Max_cycle;Signal;HPM_P1;HPM_P2
2022/02/09 00:10:11;;;;;;;2.10;0.28;;;;;;;9.25;80.45;101372.69;5100170;28;20099;-73
2022/02/09 00:12:55;;;;;;;0.88;0.38;;;;;;;9.28;80.33;101373.31;5110285;28;20043;-75
2022/02/09 00:15:40;;;;;;;0.50;0.22;;;;;;;9.30;80.31;101373.91;5089701;28;20054;-72
2022/02/09 00:23:47;;;;;;;1.02;0.30;;;;;;;9.28;80.01;101365.13;5099144;28;20540;-72
2022/02/09 00:26:58;;;;;;;0.25;0.25;;;;;;;9.24;80.20;101365.59;5086749;28;20043;-73
2022/02/09 00:32:16;;;;;;;0.30;0.30;;;;;;;9.23;80.47;101369.38;5092074;28;20040;-72
2022/02/09 01:55:28;;;;;;;0.28;0.10;;;;;;;8.95;80.97;101333.72;5108239;28;20034;-69
2022/02/09 01:57:54;;;;;;;0.00;0.00;;;;;;;8.92;80.36;101332.25;5101339;28;20052;-68
2022/02/09 02:00:19;;;;;;;0.03;0.03;;;;;;;8.86;80.77;101342.25;5112668;28;20433;-67
2022/02/09 02:02:45;;;;;;;0.20;0.10;;;;;;;8.83;80.80;101331.75;5072142;28;20023;-68
2022/02/09 02:05:11;;;;;;;0.25;0.10;;;;;;;8.78;80.98;101318.00;5098026;28;20132;-68
2022/02/09 02:10:13;;;;;;;0.10;0.10;;;;;;;8.79;81.17;101335.19;5112605;28;20088;-68
2022/02/09 02:18:27;;;;;;;0.20;0.10;;;;;;;8.72;82.03;101338.03;5099115;28;20428;-69
2022/02/09 02:24:26;;;;;;;1.10;0.10;;;;;;;8.82;81.71;101338.31;5021819;28;20561;-69
2022/02/09 02:35:29;;;;;;;0.30;0.30;;;;;;;8.95;82.18;101328.25;5108738;28;20027;-69
2022/02/09 03:12:46;;;;;;;0.47;0.20;;;;;;;8.98;83.91;101292.31;5103641;28;20157;-70
2022/02/09 03:15:35;;;;;;;0.28;0.20;;;;;;;8.94;84.22;101293.88;5104059;28;20027;-70
2022/02/09 03:18:40;;;;;;;0.20;0.20;;;;;;;8.93;84.06;101289.47;5083172;28;20032;-70
2022/02/09 03:21:54;;;;;;;0.65;0.10;;;;;;;8.94;84.00;101280.22;5105042;28;20046;-71
2022/02/09 03:23:54;;;;;;;1.42;0.40;;;;;;;8.95;83.78;101284.59;5085932;28;20043;-69
2022/02/09 03:26:41;;;;;;;0.38;0.20;;;;;;;8.96;84.02;101280.81;5098992;28;20110;-67
2022/02/09 03:53:23;;;;;;;1.23;0.10;;;;;;;9.36;82.94;101271.94;5097241;28;20061;-69
2022/02/09 03:58:20;;;;;;;0.40;0.20;;;;;;;9.40;82.83;101265.81;5096491;28;20047;-70
2022/02/09 04:00:47;;;;;;;0.98;0.30;;;;;;;9.39;82.51;101260.59;5102902;28;20019;-69
2022/02/09 04:03:16;;;;;;;0.40;0.30;;;;;;;9.40;82.45;101260.34;5103464;28;20023;-70
2022/02/09 04:05:44;;;;;;;2.28;0.32;;;;;;;9.42;82.49;101258.19;5102618;28;20047;-70
2022/02/09 04:08:13;;;;;;;0.10;0.10;;;;;;;9.41;82.07;101239.31;5067080;28;20058;-71
2022/02/09 04:10:44;;;;;;;1.15;0.20;;;;;;;9.39;82.04;101241.47;5086539;28;20027;-69
2022/02/09 04:13:24;;;;;;;0.63;0.43;;;;;;;9.39;82.13;101247.75;5108635;28;20761;-69
2022/02/09 04:16:07;;;;;;;1.33;0.30;;;;;;;9.37;82.35;101254.50;5095925;28;20019;-68
2022/02/09 04:38:14;;;;;;;0.50;0.13;;;;;;;8.94;83.23;101236.59;5102340;28;20058;-69
2022/02/09 04:40:13;;;;;;;0.65;0.30;;;;;;;8.80;83.57;101222.31;5087998;28;20127;-69
2022/02/09 04:50:52;;;;;;;2.53;0.40;;;;;;;8.35;83.88;101229.03;5105271;28;20096;-74
2022/02/09 04:54:10;;;;;;;0.85;0.55;;;;;;;8.25;83.81;101236.94;5097772;28;20053;-75
2022/02/09 04:56:12;;;;;;;0.60;0.25;;;;;;;8.14;83.67;101228.47;5106363;28;20035;-74
2022/02/09 04:59:01;;;;;;;0.20;0.10;;;;;;;8.08;84.54;101225.88;5087871;28;20032;-73
2022/02/09 05:25:49;;;;;;;0.43;0.32;;;;;;;7.50;84.83;101223.41;5099099;28;20058;-72
2022/02/09 05:28:19;;;;;;;1.30;0.40;;;;;;;7.46;84.47;101222.19;5123009;28;20027;-72
2022/02/09 05:30:47;;;;;;;0.45;0.15;;;;;;;7.43;84.35;101228.09;5099687;28;20053;-73
2022/02/09 05:33:13;;;;;;;0.10;0.10;;;;;;;7.41;84.79;101222.03;5117663;28;20034;-74
2022/02/09 05:35:42;;;;;;;0.52;0.20;;;;;;;7.39;84.91;101229.59;5106948;28;20032;-75
2022/02/09 05:38:08;;;;;;;0.00;0.00;;;;;;;7.36;84.45;101224.59;5109771;28;20028;-74
2022/02/09 05:40:33;;;;;;;0.25;0.10;;;;;;;7.36;83.77;101230.03;5116038;28;20054;-75
2022/02/09 05:42:59;;;;;;;0.20;0.20;;;;;;;7.32;84.34;101228.81;5111806;28;20020;-74
2022/02/09 05:45:30;;;;;;;0.80;0.22;;;;;;;7.26;83.46;101235.16;5097613;28;20337;-73
2022/02/09 05:48:41;;;;;;;0.90;0.35;;;;;;;7.20;83.59;101231.44;5096185;28;20099;-73
2022/02/09 05:50:54;;;;;;;0.10;0.10;;;;;;;7.14;84.20;101229.59;5096053;28;20062;-75
2022/02/09 05:53:24;;;;;;;0.10;0.10;;;;;;;7.09;84.02;101227.56;5107239;28;20036;-70
2022/02/09 05:58:44;;;;;;;0.20;0.20;;;;;;;7.01;83.71;101225.13;5104642;28;20041;-69
2022/02/09 06:01:10;;;;;;;0.40;0.30;;;;;;;6.97;84.07;101232.06;5111084;28;20024;-71
2022/02/09 06:03:35;;;;;;;0.10;0.10;;;;;;;6.94;83.89;101221.66;5099670;28;20038;-71
2022/02/09 06:06:03;;;;;;;0.10;0.10;;;;;;;6.91;83.87;101227.53;5104080;28;20394;-71
2022/02/09 06:08:29;;;;;;;1.85;0.20;;;;;;;6.88;83.33;101222.50;5096800;28;20032;-70
2022/02/09 06:11:44;;;;;;;0.10;0.10;;;;;;;6.86;83.49;101230.06;5099115;28;20031;-70
2022/02/09 06:21:41;;;;;;;0.13;0.10;;;;;;;6.76;83.39;101236.84;5083005;28;20034;-71
2022/02/09 06:24:07;;;;;;;0.13;0.10;;;;;;;6.80;84.12;101242.66;5092083;28;20036;-74
2022/02/09 06:26:32;;;;;;;0.43;0.03;;;;;;;6.79;83.75;101252.72;5102761;28;20035;-70
2022/02/09 06:28:58;;;;;;;0.10;0.10;;;;;;;6.79;82.92;101244.56;5101275;28;20028;-70
2022/02/09 06:31:23;;;;;;;0.22;0.10;;;;;;;6.77;83.51;101243.09;5108693;28;20038;-69
2022/02/09 06:33:49;;;;;;;0.03;0.03;;;;;;;6.77;83.17;101243.91;5107209;28;20035;-69
2022/02/09 06:36:20;;;;;;;0.03;0.03;;;;;;;6.76;83.14;101245.00;5058564;28;20588;-70
2022/02/09 06:38:46;;;;;;;0.22;0.10;;;;;;;6.75;82.62;101251.47;5106081;28;20031;-69
2022/02/09 06:41:11;;;;;;;0.10;0.10;;;;;;;6.77;82.88;101248.53;5086213;28;20591;-68
2022/02/09 06:43:36;;;;;;;0.22;0.10;;;;;;;6.77;82.92;101246.63;5068307;28;20408;-69
2022/02/09 06:46:02;;;;;;;0.40;0.10;;;;;;;6.78;82.94;101248.31;5105503;28;20039;-69
2022/02/09 06:48:32;;;;;;;0.63;0.20;;;;;;;6.86;83.28;101246.38;5105348;28;20055;-71
2022/02/09 06:51:05;;;;;;;0.28;0.10;;;;;;;6.95;83.73;101250.47;5112928;28;20072;-71
2022/02/09 06:53:37;;;;;;;0.10;0.10;;;;;;;6.98;83.01;101253.59;5110486;28;20030;-69
2022/02/09 06:56:03;;;;;;;0.93;0.20;;;;;;;7.01;83.25;101249.63;5087840;28;20392;-69
2022/02/09 07:01:00;;;;;;;0.10;0.10;;;;;;;7.00;83.74;101253.38;5109861;28;20030;-68
2022/02/09 07:03:25;;;;;;;1.17;1.02;;;;;;;7.01;83.74;101243.31;5100002;27;20061;-69
2022/02/09 07:05:51;;;;;;;0.45;0.45;;;;;;;7.02;83.56;101245.81;5104892;28;20047;-69
2022/02/09 07:08:17;;;;;;;0.45;0.45;;;;;;;7.00;83.11;101253.38;5105962;28;20040;-70
2022/02/09 07:10:42;;;;;;;1.08;0.32;;;;;;;7.03;83.58;101258.38;5099355;28;20111;-70
2022/02/09 07:13:08;;;;;;;2.40;0.20;;;;;;;7.04;83.73;101254.59;5091387;28;20032;-69
2022/02/09 07:15:37;;;;;;;0.30;0.20;;;;;;;7.05;83.36;101256.25;5082344;28;20053;-70
2022/02/09 07:18:07;;;;;;;0.30;0.30;;;;;;;7.10;83.75;101261.88;5100259;28;20080;-71
2022/02/09 07:20:43;;;;;;;0.30;0.30;;;;;;;7.15;84.12;101256.59;5098748;28;20525;-71
2022/02/09 07:23:22;;;;;;;0.20;0.20;;;;;;;7.20;83.70;101271.41;5108388;28;20042;-71
2022/02/09 07:25:59;;;;;;;0.20;0.20;;;;;;;7.22;83.18;101266.59;5102782;28;20048;-70
2022/02/09 07:28:25;;;;;;;0.20;0.20;;;;;;;7.26;83.32;101263.19;5103214;27;20020;-69
2022/02/09 07:30:50;;;;;;;0.20;0.20;;;;;;;7.28;83.42;101265.69;5080356;28;20092;-70
2022/02/09 07:33:16;;;;;;;0.10;0.10;;;;;;;7.29;82.91;101261.91;5108664;28;20437;-69
2022/02/09 07:35:41;;;;;;;0.10;0.10;;;;;;;7.30;82.86;101266.28;5080894;28;21962;-70
2022/02/09 07:38:07;;;;;;;0.10;0.10;;;;;;;7.33;82.81;101269.41;5051719;28;20027;-71
2022/02/09 07:40:32;;;;;;;0.17;0.17;;;;;;;7.38;82.71;101270.63;5103947;28;20477;-70
2022/02/09 07:43:04;;;;;;;0.10;0.10;;;;;;;7.44;82.62;101270.56;5089610;28;20024;-70
2022/02/09 07:45:47;;;;;;;1.40;0.52;;;;;;;7.49;83.04;101273.44;5107010;28;20036;-71
2022/02/09 07:48:26;;;;;;;0.45;0.30;;;;;;;7.56;82.78;101273.34;5099641;28;20032;-71
2022/02/09 07:51:26;;;;;;;1.08;0.10;;;;;;;7.64;83.03;101272.25;5074355;28;20475;-69
2022/02/09 07:53:46;;;;;;;0.20;0.20;;;;;;;7.71;82.71;101264.84;5101976;28;20481;-69
2022/02/09 07:56:11;;;;;;;0.10;0.10;;;;;;;7.84;83.04;101270.13;5075380;28;20036;-69
2022/02/09 07:58:37;;;;;;;0.22;0.20;;;;;;;7.96;82.95;101277.56;5101650;28;20027;-71
2022/02/09 08:01:02;;;;;;;0.20;0.20;;;;;;;8.08;83.28;101277.63;5090241;28;20064;-68
2022/02/09 08:03:28;;;;;;;0.10;0.10;;;;;;;8.20;83.12;101275.78;5086063;28;20419;-68
2022/02/09 08:05:59;;;;;;;0.17;0.10;;;;;;;8.31;83.21;101269.56;5100205;28;20752;-72
2022/02/09 08:08:30;;;;;;;0.10;0.10;;;;;;;8.42;82.90;101261.66;5100356;28;20033;-71
2022/02/09 08:10:59;;;;;;;0.10;0.10;;;;;;;8.56;82.16;101266.72;5086882;28;20049;-68
2022/02/09 08:29:44;;;;;;;0.98;0.28;;;;;;;8.74;81.48;101262.25;5113034;28;20066;-68
2022/02/09 08:34:37;;;;;;;1.35;0.55;;;;;;;8.72;81.65;101245.31;5109310;28;20111;-69
2022/02/09 08:37:04;;;;;;;1.15;0.40;;;;;;;8.78;81.48;101258.00;5084527;28;20030;-68
2022/02/09 08:39:29;;;;;;;3.90;0.45;;;;;;;8.80;81.90;101250.41;5109545;28;20089;-69
2022/02/09 08:41:55;;;;;;;0.95;0.38;;;;;;;8.86;81.73;101254.97;5109561;28;20047;-68
2022/02/09 08:44:20;;;;;;;0.40;0.22;;;;;;;8.93;81.88;101264.94;5089480;28;20368;-68
2022/02/09 08:46:47;;;;;;;1.77;0.40;;;;;;;8.99;81.91;101258.53;5092297;28;20060;-69
2022/02/09 08:49:13;;;;;;;0.10;0.10;;;;;;;9.09;81.38;101264.22;5089401;28;20465;-69
2022/02/09 08:51:41;;;;;;;0.40;0.10;;;;;;;9.26;81.79;101265.19;5098087;28;20031;-68
2022/02/09 08:54:07;;;;;;;0.10;0.10;;;;;;;9.45;81.31;101262.34;5084708;28;20117;-69
2022/02/09 08:56:32;;;;;;;0.00;0.00;;;;;;;9.64;81.49;101265.78;5105564;28;20051;-69
2022/02/09 08:58:59;;;;;;;0.10;0.10;;;;;;;9.88;80.87;101266.56;5107869;28;20058;-68
2022/02/09 09:04:00;;;;;;;0.30;0.30;;;;;;;10.22;80.63;101261.25;5104506;28;20084;-68
2022/02/09 09:06:27;;;;;;;0.50;0.50;;;;;;;10.36;80.29;101269.19;5109120;28;20047;-69
2022/02/09 10:01:19;;;;;;;1.52;0.30;;;;;;;17.21;57.45;101260.72;5102700;28;20076;-67
2022/02/09 10:03:12;;;;;;;2.03;0.30;;;;;;;17.70;56.09;101269.09;5099206;28;20035;-67
2022/02/09 10:33:55;;;;;;;1.92;0.40;;;;;;;22.68;43.73;101281.97;5092292;28;20070;-69
2022/02/09 10:36:21;;;;;;;1.27;0.20;;;;;;;23.38;42.60;101281.94;5105022;28;20016;-68
2022/02/09 10:39:58;;;;;;;0.28;0.17;;;;;;;24.14;40.80;101291.47;5104943;28;20042;-66
2022/02/09 10:42:54;;;;;;;0.30;0.10;;;;;;;23.79;38.11;101286.03;5069509;28;20374;-69
2022/02/09 10:45:37;;;;;;;1.35;0.10;;;;;;;22.90;37.03;101289.34;5105024;28;20036;-67
2022/02/09 10:48:25;;;;;;;0.82;0.22;;;;;;;21.89;38.40;101292.09;5099373;28;20047;-69
2022/02/09 10:50:53;;;;;;;0.50;0.20;;;;;;;21.89;38.98;101295.72;5103567;28;20027;-68
2022/02/09 10:53:24;;;;;;;0.65;0.30;;;;;;;21.70;38.69;101298.75;5089434;28;20031;-69
2022/02/09 10:56:01;;;;;;;0.28;0.15;;;;;;;20.73;39.33;101294.50;5103901;28;20107;-70
2022/02/09 10:58:28;;;;;;;2.97;0.80;;;;;;;19.70;40.78;101293.84;5100934;28;20023;-69
2022/02/09 11:00:54;;;;;;;3.00;0.20;;;;;;;18.74;42.78;101283.28;5098006;28;20104;-69
2022/02/09 11:03:22;;;;;;;0.70;0.20;;;;;;;18.39;44.63;101285.44;5098901;28;20032;-69
2022/02/09 11:05:53;;;;;;;0.68;0.45;;;;;;;17.84;45.10;101286.63;5090466;28;20044;-68
2022/02/09 11:08:19;;;;;;;2.60;0.20;;;;;;;17.51;46.18;101289.19;5090587;28;20046;-68
2022/02/09 11:10:46;;;;;;;0.38;0.28;;;;;;;17.30;47.30;101282.22;5087134;28;20462;-69
2022/02/09 11:13:12;;;;;;;1.10;0.30;;;;;;;17.14;47.31;101285.09;5073214;28;20035;-69
2022/02/09 11:15:44;;;;;;;0.50;0.15;;;;;;;16.95;48.33;101271.16;5103899;28;20059;-69
2022/02/09 11:18:15;;;;;;;0.20;0.10;;;;;;;16.78;48.14;101274.31;5102863;28;20080;-68
2022/02/09 11:20:59;;;;;;;0.15;0.10;;;;;;;16.47;48.75;101276.44;5098545;28;20030;-69
2022/02/09 11:23:38;;;;;;;0.30;0.10;;;;;;;16.23;50.19;101271.59;5102543;28;20023;-69
2022/02/09 11:26:10;;;;;;;1.70;1.05;;;;;;;16.08;50.57;101272.50;5102572;28;20027;-69
2022/02/09 11:28:41;;;;;;;0.80;0.20;;;;;;;16.19;51.26;101276.03;5103715;28;20785;-70
2022/02/09 11:31:17;;;;;;;0.93;0.40;;;;;;;16.29;51.15;101275.16;5088374;28;20066;-70
2022/02/09 11:33:55;;;;;;;;;;;;;;;16.45;50.92;101285.00;5104684;28;20099;-69
2022/02/09 11:38:57;;;;;;;2.25;0.30;;;;;;;16.79;50.96;101275.94;5091757;28;20026;-68
2022/02/09 11:41:34;;;;;;;0.30;0.10;;;;;;;16.97;50.12;101279.16;5100819;28;20106;-69
2022/02/09 11:44:19;;;;;;;0.30;0.10;;;;;;;16.99;49.46;101282.47;5097243;28;20031;-69
2022/02/09 11:58:10;;;;;;;0.47;0.28;;;;;;;16.65;51.60;101273.03;5097426;28;20050;-69
2022/02/09 12:09:34;;;;;;;2.35;0.50;;;;;;;17.39;50.50;101237.06;5098001;28;20067;-68
2022/02/09 12:12:05;;;;;;;0.30;0.10;;;;;;;17.75;49.35;101244.94;5096104;28;20039;-70
2022/02/09 12:14:52;;;;;;;0.55;0.40;;;;;;;17.78;49.24;101246.31;5099562;28;20476;-68
2022/02/09 12:19:58;;;;;;;0.40;0.20;;;;;;;17.20;49.31;101234.22;5089751;28;20035;-68
2022/02/09 12:22:26;;;;;;;0.32;0.20;;;;;;;16.89;50.11;101228.97;5105138;28;20039;-70
2022/02/09 12:24:56;;;;;;;4.60;0.40;;;;;;;16.54;49.97;101221.72;5066163;28;20027;-70
2022/02/09 12:27:22;;;;;;;0.40;0.17;;;;;;;16.45;51.14;101229.78;5090275;28;20389;-69
2022/02/09 12:30:00;;;;;;;0.40;0.20;;;;;;;16.52;51.50;101227.53;5107888;28;20053;-69
2022/02/09 12:32:29;;;;;;;0.52;0.10;;;;;;;16.96;51.62;101225.03;5092184;28;20252;-68
2022/02/09 12:34:56;;;;;;;0.30;0.20;;;;;;;18.17;50.05;101234.22;5103715;28;20023;-67
2022/02/09 12:37:22;;;;;;;0.75;0.10;;;;;;;18.95;47.47;101215.34;5102912;28;20035;-68
2022/02/09 12:39:58;;;;;;;0.10;0.00;;;;;;;19.62;45.98;101208.53;5099061;28;20024;-68
2022/02/09 12:42:29;;;;;;;0.98;0.30;;;;;;;20.54;44.81;101207.69;5105298;28;20027;-68
2022/02/09 12:45:07;;;;;;;0.55;0.20;;;;;;;21.88;42.93;101209.75;5097434;28;20107;-69
2022/02/09 12:47:43;;;;;;;0.43;0.20;;;;;;;23.14;39.70;101205.19;5088101;28;20182;-70
2022/02/09 12:50:47;;;;;;;0.30;0.20;;;;;;;23.74;37.18;101188.50;5099637;28;20036;-70
2022/02/09 12:53:31;;;;;;;1.85;0.20;;;;;;;24.02;37.05;101199.19;5083933;28;20111;-70
2022/02/09 12:55:57;;;;;;;0.32;0.20;;;;;;;24.93;37.53;101198.63;5104873;28;20152;-69
2022/02/09 12:58:42;;;;;;;;;;;;;;;;;;;;;
2022/02/09 13:01:11;;;;;;;3.22;0.32;;;;;;;26.98;32.17;101187.38;5105152;28;20451;-70
2022/02/09 13:03:37;;;;;;;0.10;0.03;;;;;;;27.29;32.11;101186.63;5096176;28;20028;-70
2022/02/09 13:06:05;;;;;;;0.47;0.15;;;;;;;27.88;31.04;101184.03;5088907;28;20070;-72
2022/02/09 13:08:31;;;;;;;0.40;0.10;;;;;;;27.75;29.70;101185.34;5096089;28;20396;-69
2022/02/09 13:11:11;;;;;;;0.20;0.10;;;;;;;26.20;29.79;101190.41;5078711;28;20042;-68
2022/02/09 13:13:39;;;;;;;0.45;0.20;;;;;;;24.58;31.75;101177.38;5108704;28;20023;-68
2022/02/09 13:22:59;;;;;;;0.20;0.17;;;;;;;21.25;38.12;101154.19;5101250;28;20477;-68
2022/02/09 13:26:27;;;;;;;0.10;0.10;;;;;;;20.62;39.30;101148.59;5118515;28;20015;-69
2022/02/09 14:04:03;;;;;;;0.73;0.30;;;;;;;22.46;35.15;101147.22;5101229;28;20083;-67
2022/02/09 14:18:49;;;;;;;0.15;0.08;;;;;;;18.59;43.90;101143.88;5096192;28;20089;-69
2022/02/09 14:47:37;;;;;;;0.10;0.10;;;;;;;15.11;52.35;101103.56;5104783;28;20119;-69
2022/02/09 14:58:07;;;;;;;0.40;0.20;;;;;;;14.99;53.44;101095.59;5096799;28;20066;-68
2022/02/09 15:00:49;;;;;;;0.28;0.13;;;;;;;14.83;54.12;101091.22;5082290;28;20111;-68
2022/02/09 15:14:15;;;;;;;3.40;0.50;;;;;;;14.70;55.70;101092.63;5096115;28;20051;-69
2022/02/09 15:16:59;;;;;;;0.10;0.10;;;;;;;14.70;55.45;101087.13;5106179;28;20522;-68
2022/02/09 15:19:36;;;;;;;0.35;0.20;;;;;;;14.58;55.59;101084.63;5075145;28;20024;-71
2022/02/09 15:22:06;;;;;;;0.30;0.30;;;;;;;14.61;55.45;101094.25;5090786;28;20031;-72
2022/02/09 15:24:41;;;;;;;0.65;0.28;;;;;;;14.47;56.11;101085.72;5093945;28;20037;-72
2022/02/09 15:27:19;;;;;;;0.43;0.17;;;;;;;14.35;56.44;101072.25;5101959;28;20028;-71
2022/02/09 15:29:49;;;;;;;1.65;0.30;;;;;;;14.24;56.36;101070.63;5110197;28;20028;-71
2022/02/09 15:35:01;;;;;;;0.70;0.35;;;;;;;14.25;57.21;101072.25;5102083;28;20020;-72
2022/02/09 15:37:44;;;;;;;0.32;0.28;;;;;;;14.30;57.20;101078.59;5102900;28;20036;-73
2022/02/09 16:05:50;;;;;;;0.73;0.73;;;;;;;13.81;59.31;101054.34;5089145;28;20082;-72
2022/02/09 16:18:02;;;;;;;0.82;0.60;;;;;;;13.49;60.77;101035.31;5100980;28;20066;-73
2022/02/09 16:23:05;;;;;;;0.68;0.68;;;;;;;13.39;60.99;101041.59;5108055;28;20024;-73
2022/02/09 16:44:42;;;;;;;1.02;0.82;;;;;;;13.00;63.27;101029.06;5111599;28;20145;-70
2022/02/09 16:47:39;;;;;;;1.38;1.20;;;;;;;12.83;63.19;101017.47;5090641;28;20119;-71
2022/02/09 16:50:13;;;;;;;6.40;1.83;;;;;;;12.78;63.66;101025.69;5107796;28;20115;-71
2022/02/09 16:52:52;;;;;;;1.67;0.80;;;;;;;12.75;64.97;101033.34;5099992;28;20027;-69
2022/02/09 17:15:33;;;;;;;1.35;0.88;;;;;;;12.03;67.44;101038.31;5113388;28;20023;-69
2022/02/09 17:20:25;;;;;;;2.80;0.82;;;;;;;11.57;69.11;101018.66;5096942;28;20691;-70
2022/02/09 17:22:51;;;;;;;3.60;1.40;;;;;;;11.46;69.46;101028.69;5114092;28;20391;-70
2022/02/09 17:25:17;;;;;;;1.23;1.05;;;;;;;11.38;69.81;101025.59;5096757;28;20024;-70
2022/02/09 17:27:48;;;;;;;1.40;1.25;;;;;;;11.26;70.35;101029.28;5102203;28;20069;-75
2022/02/09 17:33:29;;;;;;;0.82;0.80;;;;;;;11.16;71.00;101026.44;5085655;28;20124;-71
2022/02/09 17:36:13;;;;;;;4.28;1.27;;;;;;;11.08;72.13;101016.75;5094986;28;20041;-75
2022/02/09 17:39:06;;;;;;;7.53;1.98;;;;;;;11.05;72.19;101008.22;5093081;28;20027;-75
2022/02/09 17:58:27;;;;;;;2.80;1.67;;;;;;;10.90;73.38;101023.34;5102507;28;20031;-69
2022/02/09 18:00:55;;;;;;;0.93;0.90;;;;;;;10.96;72.90;101027.81;5106586;28;20019;-72
2022/02/09 18:03:22;;;;;;;1.33;0.93;;;;;;;10.95;73.12;101022.59;5080122;28;20036;-71
2022/02/09 18:05:53;;;;;;;0.73;0.73;;;;;;;10.93;73.07;101020.09;5109963;28;20130;-70
2022/02/09 18:08:36;;;;;;;0.90;0.80;;;;;;;11.03;72.84;101037.75;5103793;28;20063;-70
2022/02/09 18:33:23;;;;;;;2.85;1.20;;;;;;;11.28;72.99;101038.06;5104424;28;20503;-72
2022/02/09 18:38:48;;;;;;;0.57;0.57;;;;;;;11.38;72.98;101036.53;5107299;28;20137;-72
2022/02/09 18:46:54;;;;;;;0.82;0.77;;;;;;;11.48;72.05;101036.66;5099824;28;20016;-75
2022/02/09 19:02:57;;;;;;;2.08;1.25;;;;;;;11.58;71.48;101031.28;5110440;28;20047;-71
2022/02/09 19:05:30;;;;;;;3.55;1.30;;;;;;;11.53;71.75;101033.94;5083736;28;20048;-71
2022/02/09 19:16:42;;;;;;;3.92;1.08;;;;;;;11.36;72.74;101036.78;5016254;28;20057;-72
2022/02/09 19:49:13;;;;;;;0.75;0.60;;;;;;;11.44;73.00;101036.31;5102190;28;20382;-70
2022/02/09 19:56:53;;;;;;;0.30;0.30;;;;;;;11.48;72.79;101032.00;5099915;28;20031;-70
2022/02/09 19:59:21;;;;;;;0.20;0.20;;;;;;;11.49;72.50;101032.81;5086668;28;20122;-71
2022/02/09 20:01:50;;;;;;;0.20;0.10;;;;;;;11.46;72.58;101028.69;5100096;28;20031;-71
2022/02/09 20:04:19;;;;;;;0.30;0.28;;;;;;;11.43;72.98;101033.84;5091662;28;20089;-74
2022/02/09 20:06:44;;;;;;;0.30;0.30;;;;;;;11.41;73.47;101033.28;5082489;28;20055;-70
2022/02/09 20:09:10;;;;;;;0.30;0.20;;;;;;;11.31;73.69;101026.59;5079239;28;20036;-72
2022/02/09 20:11:38;;;;;;;0.95;0.30;;;;;;;11.24;73.75;101031.44;5096463;28;20031;-72
2022/02/09 20:14:04;;;;;;;0.30;0.30;;;;;;;11.16;74.09;101029.16;5075584;28;20028;-74
2022/02/09 20:16:30;;;;;;;0.28;0.28;;;;;;;11.10;74.69;101024.72;5086709;28;20028;-73
2022/02/09 20:19:38;;;;;;;0.20;0.20;;;;;;;11.04;74.31;101021.09;5085332;28;20043;-72
2022/02/09 20:22:18;;;;;;;0.98;0.40;;;;;;;11.02;74.92;101025.97;5099969;28;20025;-69
2022/02/09 20:24:46;;;;;;;1.48;0.20;;;;;;;10.97;75.29;101020.44;5074130;28;20044;-70
2022/02/09 20:27:14;;;;;;;0.40;0.30;;;;;;;10.98;74.65;101014.72;5085279;28;20368;-72
2022/02/09 20:29:41;;;;;;;0.20;0.20;;;;;;;11.06;74.99;101035.31;5077580;28;20030;-71
2022/02/09 20:34:43;;;;;;;0.40;0.40;;;;;;;11.07;74.63;101026.03;5087341;28;20114;-72
2022/02/09 20:38:06;;;;;;;;;;;;;;;;;;;;;
2022/02/09 20:40:53;;;;;;;0.50;0.50;;;;;;;11.01;74.92;101038.00;5062679;28;20032;-71
2022/02/09 20:43:22;;;;;;;2.30;0.60;;;;;;;10.95;75.23;101028.91;5098545;28;20031;-70
2022/02/09 20:45:53;;;;;;;0.75;0.70;;;;;;;10.92;75.00;101037.63;5081124;28;20012;-70
2022/02/09 20:48:27;;;;;;;0.70;0.70;;;;;;;10.87;74.97;101029.34;5081478;28;20097;-70
2022/02/09 20:50:57;;;;;;;0.47;0.47;;;;;;;10.83;75.68;101031.75;5082091;28;20020;-71
2022/02/09 20:53:22;;;;;;;0.63;0.40;;;;;;;10.76;75.58;101042.06;5081325;28;20035;-71
2022/02/09 20:55:49;;;;;;;0.60;0.60;;;;;;;10.71;75.94;101038.41;5079496;28;20469;-75
2022/02/09 20:58:17;;;;;;;0.50;0.50;;;;;;;10.63;76.05;101037.78;5082981;28;20119;-72
2022/02/09 21:11:53;;;;;;;1.30;1.30;;;;;;;10.39;77.62;101041.78;5062027;28;20027;-73
2022/02/09 21:17:27;;;;;;;1.30;1.30;;;;;;;10.24;77.84;101034.97;5013566;28;20138;-76
2022/02/09 21:20:27;;;;;;;2.53;1.70;;;;;;;10.25;77.78;101041.25;5012097;28;20404;-72
2022/02/09 21:23:06;;;;;;;1.35;1.35;;;;;;;10.23;77.91;101035.22;5060305;28;20385;-72
2022/02/09 21:31:38;;;;;;;1.67;1.60;;;;;;;10.11;78.65;101043.50;5072566;28;20086;-70
2022/02/09 21:53:12;;;;;;;10.50;9.25;;;;;;;10.14;78.79;101026.59;5073208;28;20032;-72
2022/02/09 21:55:09;;;;;;;9.43;8.63;;;;;;;10.10;78.83;101018.06;5069575;28;20037;-73
2022/02/09 21:57:55;;;;;;;10.35;9.45;;;;;;;10.13;78.67;101020.31;5080706;28;20020;-72
2022/02/09 22:00:46;;;;;;;10.27;9.48;;;;;;;10.11;78.75;101018.91;5074166;28;20056;-74
2022/02/09 22:27:55;;;;;;;0.90;0.90;;;;;;;10.36;76.52;101009.47;5099021;28;20040;-71
2022/02/09 22:50:05;;;;;;;1.05;0.90;;;;;;;10.39;75.66;101004.31;5095115;28;20035;-71
2022/02/09 22:55:48;;;;;;;1.10;1.10;;;;;;;10.28;75.20;100981.44;5093566;28;20057;-70
2022/02/09 22:58:32;;;;;;;1.55;0.80;;;;;;;10.28;74.48;100988.84;5089375;28;20035;-72
2022/02/09 23:03:43;;;;;;;0.85;0.50;;;;;;;10.23;74.53;100981.34;5078647;28;20023;-71
2022/02/09 23:06:27;;;;;;;0.98;0.82;;;;;;;10.21;74.80;100975.31;5095546;28;20074;-71
